Time;durP1;ratioP1;P1;durP2;ratioP2;P2;SDS_P1;SDS_P2;PMS_P1;PMS_P2;Temp;Humidity;BMP_temperature;BMP_pressure;BME280_temperature;BME280_humidity;BME280_pressure;Samples;Min_cycle;Max_cycle;Signal;HPM_P1;HPM_P2
2021/10/19 00:02:18;;;;;;;15.73;14.07;;;7.40;99.90;;;;;;5001995;28;20183;-83
2021/10/19 00:04:44;;;;;;;18.30;14.97;;;7.40;99.90;;;;;;4999887;28;20203;-83
2021/10/19 00:07:09;;;;;;;18.77;15.23;;;7.40;99.90;;;;;;5001699;28;20199;-81
2021/10/19 00:09:35;;;;;;;16.00;14.30;;;7.40;99.90;;;;;;4999766;28;20271;-81
2021/10/19 00:12:00;;;;;;;16.40;14.33;;;7.40;99.90;;;;;;4999728;28;20213;-81
2021/10/19 00:14:26;;;;;;;16.33;12.70;;;7.30;99.90;;;;;;4999157;28;20204;-81
2021/10/19 00:16:52;;;;;;;14.20;12.77;;;7.30;99.90;;;;;;5000730;28;20222;-81
2021/10/19 00:19:17;;;;;;;16.90;14.03;;;7.20;99.90;;;;;;5000978;28;20176;-81
2021/10/19 00:21:43;;;;;;;16.20;14.13;;;7.20;99.90;;;;;;5000800;28;20186;-81
2021/10/19 00:24:09;;;;;;;14.73;13.13;;;7.20;99.90;;;;;;5000654;28;20195;-81
2021/10/19 00:26:34;;;;;;;17.67;14.60;;;7.20;99.90;;;;;;5000352;28;20182;-81
2021/10/19 00:29:00;;;;;;;15.33;12.80;;;7.20;99.90;;;;;;5000161;28;20595;-81
2021/10/19 00:31:25;;;;;;;13.30;11.90;;;7.20;99.90;;;;;;5000245;28;20179;-81
2021/10/19 00:33:51;;;;;;;13.67;11.97;;;7.10;99.90;;;;;;4998832;28;20207;-81
2021/10/19 00:36:17;;;;;;;14.53;11.53;;;7.10;99.90;;;;;;4998739;28;20601;-81
2021/10/19 00:38:42;;;;;;;13.40;12.00;;;7.10;99.90;;;;;;5001945;28;20244;-81
2021/10/19 00:41:08;;;;;;;12.97;11.57;;;7.00;99.90;;;;;;5012049;28;20199;-81
2021/10/19 00:43:34;;;;;;;14.63;12.40;;;7.00;99.90;;;;;;4999792;28;20199;-81
2021/10/19 00:45:59;;;;;;;13.30;11.97;;;7.00;99.90;;;;;;5000387;28;20176;-81
2021/10/19 00:48:27;;;;;;;13.70;12.23;;;7.00;99.90;;;;;;4999411;28;20190;-81
2021/10/19 00:50:54;;;;;;;13.37;12.07;;;7.00;99.90;;;;;;4999733;28;20230;-81
2021/10/19 00:53:19;;;;;;;12.23;11.03;;;7.10;99.90;;;;;;4999827;28;20193;-81
2021/10/19 00:55:45;;;;;;;13.10;11.67;;;7.00;99.90;;;;;;4999678;28;20182;-81
2021/10/19 00:58:12;;;;;;;12.70;11.50;;;7.10;99.90;;;;;;4999594;28;20188;-81
2021/10/19 01:00:37;;;;;;;12.63;11.30;;;7.20;99.90;;;;;;4999788;28;20233;-81
2021/10/19 01:03:04;;;;;;;12.57;11.43;;;7.20;99.90;;;;;;4999744;28;20176;-81
2021/10/19 01:05:30;;;;;;;12.07;10.80;;;7.20;99.90;;;;;;4999850;28;20179;-80
2021/10/19 01:07:56;;;;;;;15.53;11.67;;;7.20;99.90;;;;;;4998088;28;20184;-81
2021/10/19 01:10:22;;;;;;;12.53;11.33;;;7.10;99.90;;;;;;4999813;28;20184;-81
2021/10/19 01:12:49;;;;;;;20.60;14.53;;;7.20;99.90;;;;;;5000188;28;20182;-81
2021/10/19 01:15:17;;;;;;;16.80;12.93;;;7.30;99.90;;;;;;4997823;28;20198;-82
2021/10/19 01:17:44;;;;;;;18.10;14.43;;;7.20;99.90;;;;;;4998224;28;20195;-82
2021/10/19 01:20:16;;;;;;;19.00;14.60;;;7.30;99.90;;;;;;4999435;28;20667;-82
2021/10/19 01:22:41;;;;;;;23.00;14.90;;;7.20;99.90;;;;;;4998885;28;20677;-81
2021/10/19 01:25:07;;;;;;;25.07;14.60;;;7.20;99.90;;;;;;4999526;28;20200;-82
2021/10/19 01:27:47;;;;;;;23.67;14.73;;;7.20;99.90;;;;;;5002138;28;20240;-82
2021/10/19 01:30:13;;;;;;;41.80;15.50;;;7.10;99.90;;;;;;5001312;28;20182;-82
2021/10/19 01:32:38;;;;;;;25.17;16.30;;;7.10;99.90;;;;;;5003014;28;20534;-82
2021/10/19 01:35:08;;;;;;;22.13;15.63;;;7.00;99.90;;;;;;5002688;28;20219;-81
2021/10/19 01:37:36;;;;;;;22.43;15.70;;;7.10;99.90;;;;;;5002501;28;20198;-81
2021/10/19 01:40:06;;;;;;;29.73;16.13;;;7.10;99.90;;;;;;5000959;28;20662;-81
2021/10/19 01:42:34;;;;;;;31.13;15.93;;;7.10;99.90;;;;;;4998673;28;20513;-81
2021/10/19 01:45:00;;;;;;;54.40;17.40;;;7.20;99.90;;;;;;5002043;28;20655;-81
2021/10/19 01:47:27;;;;;;;55.13;17.87;;;7.20;99.90;;;;;;5000671;28;20282;-81
2021/10/19 01:49:52;;;;;;;43.37;17.87;;;7.10;99.90;;;;;;5002401;28;20197;-81
2021/10/19 01:52:18;;;;;;;38.63;18.13;;;7.00;99.90;;;;;;5002748;28;20718;-81
2021/10/19 01:54:43;;;;;;;36.80;18.53;;;7.10;99.90;;;;;;5001855;28;20196;-81
2021/10/19 01:57:09;;;;;;;39.00;18.10;;;7.10;99.90;;;;;;5001922;28;20200;-81
2021/10/19 01:59:34;;;;;;;40.63;19.13;;;7.20;99.90;;;;;;5001727;28;20263;-81
2021/10/19 02:02:00;;;;;;;43.00;19.47;;;7.30;99.90;;;;;;5002304;28;20175;-81
2021/10/19 02:04:26;;;;;;;36.67;18.10;;;7.20;99.90;;;;;;5002563;28;20210;-80
2021/10/19 02:06:51;;;;;;;37.30;19.33;;;7.30;99.90;;;;;;5001164;28;20176;-81
2021/10/19 02:09:17;;;;;;;40.30;19.47;;;7.30;99.90;;;;;;5000699;28;20199;-81
2021/10/19 02:11:42;;;;;;;37.33;18.37;;;7.40;99.90;;;;;;5002706;28;20240;-82
2021/10/19 02:14:08;;;;;;;41.03;19.77;;;7.30;99.90;;;;;;5001840;28;20214;-81
2021/10/19 02:16:34;;;;;;;42.53;18.37;;;7.30;99.90;;;;;;5002090;28;20256;-81
2021/10/19 02:18:59;;;;;;;44.53;19.13;;;7.30;99.90;;;;;;5000782;28;20183;-81
2021/10/19 02:21:25;;;;;;;35.40;18.23;;;7.30;99.90;;;;;;5001278;28;20176;-81
2021/10/19 02:23:50;;;;;;;31.27;18.20;;;7.30;99.90;;;;;;5001635;28;20199;-81
2021/10/19 02:26:16;;;;;;;38.83;18.37;;;7.20;99.90;;;;;;5001191;28;20180;-81
2021/10/19 02:28:42;;;;;;;54.77;19.87;;;7.20;99.90;;;;;;5003446;28;20242;-81
2021/10/19 02:31:10;;;;;;;39.87;20.37;;;7.20;99.90;;;;;;5006077;28;20172;-81
2021/10/19 02:33:36;;;;;;;38.03;19.20;;;7.20;99.90;;;;;;5004560;28;20721;-81
2021/10/19 02:36:02;;;;;;;44.23;19.10;;;7.20;99.90;;;;;;5004142;28;20197;-81
2021/10/19 02:38:28;;;;;;;66.60;20.77;;;7.20;99.90;;;;;;5001433;28;20176;-81
2021/10/19 02:40:54;;;;;;;78.53;19.23;;;7.20;99.90;;;;;;5001981;28;20216;-81
2021/10/19 02:43:19;;;;;;;47.30;21.47;;;7.20;99.90;;;;;;5002576;28;20191;-81
2021/10/19 02:45:45;;;;;;;36.03;20.03;;;7.20;99.90;;;;;;5003104;28;20202;-81
2021/10/19 02:48:10;;;;;;;47.87;20.63;;;7.20;99.90;;;;;;4995780;28;20203;-81
2021/10/19 02:50:36;;;;;;;45.23;19.63;;;7.20;99.90;;;;;;5002870;28;20187;-81
2021/10/19 02:53:02;;;;;;;54.00;20.60;;;7.20;99.90;;;;;;5001331;28;20188;-81
2021/10/19 02:55:28;;;;;;;36.03;21.03;;;7.20;99.90;;;;;;5000736;28;20191;-82
2021/10/19 02:57:54;;;;;;;50.00;21.10;;;7.20;99.90;;;;;;5001658;28;20207;-82
2021/10/19 03:00:20;;;;;;;92.20;21.37;;;7.30;99.90;;;;;;5001003;28;20187;-82
2021/10/19 03:02:45;;;;;;;68.73;21.83;;;7.20;99.90;;;;;;5001663;28;20176;-82
2021/10/19 03:05:11;;;;;;;54.13;23.33;;;7.20;99.90;;;;;;5001900;28;20298;-81
2021/10/19 03:07:37;;;;;;;79.10;20.97;;;7.20;99.90;;;;;;5012963;28;20179;-82
2021/10/19 03:10:04;;;;;;;33.20;20.60;;;7.20;99.90;;;;;;5018025;28;20180;-82
2021/10/19 03:12:29;;;;;;;36.17;20.40;;;7.20;99.90;;;;;;5001690;28;20183;-81
2021/10/19 03:14:55;;;;;;;33.00;21.67;;;7.20;99.90;;;;;;5001794;28;20199;-83
2021/10/19 03:17:21;;;;;;;54.07;24.27;;;7.30;99.90;;;;;;4999675;28;20379;-83
2021/10/19 03:19:46;;;;;;;36.23;21.00;;;7.30;99.90;;;;;;5001579;28;20235;-83
2021/10/19 03:22:12;;;;;;;63.07;24.43;;;7.30;99.90;;;;;;5001500;28;20187;-83
2021/10/19 03:24:38;;;;;;;35.33;22.07;;;7.40;99.90;;;;;;5000120;28;20195;-82
2021/10/19 03:27:04;;;;;;;76.43;23.50;;;7.40;99.90;;;;;;4999177;28;20199;-82
2021/10/19 03:29:30;;;;;;;124.93;26.23;;;7.40;99.90;;;;;;4998777;28;20180;-83
2021/10/19 03:31:55;;;;;;;39.77;23.50;;;7.40;99.90;;;;;;4999273;28;20176;-83
2021/10/19 03:34:21;;;;;;;39.93;24.63;;;7.40;99.90;;;;;;5000431;28;20218;-83
2021/10/19 03:36:47;;;;;;;53.60;24.47;;;7.50;99.90;;;;;;4999238;28;20196;-83
2021/10/19 03:39:13;;;;;;;50.07;24.73;;;7.50;99.90;;;;;;5000498;28;20175;-83
2021/10/19 03:41:39;;;;;;;42.67;23.73;;;7.50;99.90;;;;;;4999480;28;20179;-83
2021/10/19 03:44:04;;;;;;;40.37;24.10;;;7.50;99.90;;;;;;4998196;28;20288;-83
2021/10/19 03:46:30;;;;;;;45.90;25.03;;;7.50;99.90;;;;;;4999290;28;20179;-83
2021/10/19 03:48:55;;;;;;;66.47;25.43;;;7.50;99.90;;;;;;5000075;28;20542;-82
2021/10/19 03:51:21;;;;;;;82.50;26.50;;;7.60;99.90;;;;;;4998278;28;20186;-83
2021/10/19 03:53:47;;;;;;;92.33;27.10;;;7.60;99.90;;;;;;5000422;28;20207;-83
2021/10/19 03:56:12;;;;;;;75.67;25.97;;;7.60;99.90;;;;;;4998848;28;20192;-83
2021/10/19 03:58:38;;;;;;;87.00;26.70;;;7.50;99.90;;;;;;4999319;28;20232;-83
2021/10/19 04:01:04;;;;;;;44.07;27.13;;;7.50;99.90;;;;;;4999107;28;20203;-83
2021/10/19 04:03:29;;;;;;;63.77;26.67;;;7.50;99.90;;;;;;5009924;28;20202;-83
2021/10/19 04:05:55;;;;;;;59.87;28.20;;;7.50;99.90;;;;;;4994806;28;20192;-83
2021/10/19 04:08:21;;;;;;;61.60;28.40;;;7.50;99.90;;;;;;4998203;28;20176;-83
2021/10/19 04:10:46;;;;;;;57.97;26.97;;;7.60;99.90;;;;;;4998133;28;20176;-83
2021/10/19 04:13:12;;;;;;;104.07;28.93;;;7.60;99.90;;;;;;4999334;28;20257;-83
2021/10/19 04:15:38;;;;;;;76.57;26.70;;;7.60;99.90;;;;;;4999463;28;20180;-83
2021/10/19 04:18:03;;;;;;;83.07;28.20;;;7.50;99.90;;;;;;5000054;28;20214;-83
2021/10/19 04:20:29;;;;;;;79.23;28.87;;;7.50;99.90;;;;;;4999487;28;20214;-83
2021/10/19 04:22:55;;;;;;;77.50;28.07;;;7.50;99.90;;;;;;4999036;28;20266;-83
2021/10/19 04:25:20;;;;;;;68.83;27.97;;;7.50;99.90;;;;;;4999888;28;20627;-82
2021/10/19 04:27:46;;;;;;;64.60;29.17;;;7.40;99.90;;;;;;4999979;28;20202;-83
2021/10/19 04:30:12;;;;;;;59.43;29.00;;;7.50;99.90;;;;;;5000619;28;20215;-83
2021/10/19 04:32:38;;;;;;;59.37;26.80;;;7.50;99.90;;;;;;5000769;28;20551;-83
2021/10/19 04:35:04;;;;;;;56.77;29.07;;;7.50;99.90;;;;;;5000196;28;20230;-83
2021/10/19 04:37:30;;;;;;;63.83;27.50;;;7.60;99.90;;;;;;4999604;28;20196;-83
2021/10/19 04:39:56;;;;;;;48.17;26.73;;;7.60;99.90;;;;;;4999823;28;20617;-83
2021/10/19 04:42:21;;;;;;;56.63;26.10;;;7.60;99.90;;;;;;4997059;28;20211;-83
2021/10/19 04:44:48;;;;;;;52.33;26.60;;;7.60;99.90;;;;;;4997212;28;20285;-83
2021/10/19 04:47:15;;;;;;;54.90;27.77;;;7.60;99.90;;;;;;4998254;28;20180;-83
2021/10/19 04:49:41;;;;;;;53.17;28.77;;;7.60;99.90;;;;;;4999343;28;20247;-85
2021/10/19 04:52:06;;;;;;;54.57;28.43;;;7.60;99.90;;;;;;4998997;28;20217;-83
2021/10/19 04:54:32;;;;;;;51.57;27.73;;;7.70;99.90;;;;;;4998696;28;20200;-83
2021/10/19 04:56:58;;;;;;;55.20;27.23;;;7.70;99.90;;;;;;4997140;28;20202;-83
2021/10/19 04:59:23;;;;;;;47.00;25.17;;;7.70;99.90;;;;;;5000344;28;20176;-83
2021/10/19 05:01:49;;;;;;;48.63;25.93;;;7.60;99.90;;;;;;5002152;28;20179;-83
2021/10/19 05:04:15;;;;;;;52.47;24.43;;;7.70;99.90;;;;;;5002805;28;20279;-83
2021/10/19 05:06:44;;;;;;;45.53;24.70;;;7.60;99.90;;;;;;5000842;28;20186;-83
2021/10/19 05:09:10;;;;;;;50.40;26.77;;;7.60;99.90;;;;;;5000164;28;20191;-82
2021/10/19 05:11:36;;;;;;;49.20;26.10;;;7.60;99.90;;;;;;5001415;28;20211;-82
2021/10/19 05:14:02;;;;;;;47.97;26.43;;;7.60;99.90;;;;;;5002890;28;20207;-82
2021/10/19 05:16:27;;;;;;;51.90;27.13;;;7.60;99.90;;;;;;5001345;28;20270;-83
2021/10/19 05:18:53;;;;;;;50.73;26.90;;;7.60;99.90;;;;;;5001595;28;20261;-83
2021/10/19 05:21:19;;;;;;;47.30;26.60;;;7.60;99.90;;;;;;5002278;28;20259;-82
2021/10/19 05:23:44;;;;;;;51.93;27.83;;;7.70;99.90;;;;;;5001425;28;20253;-81
2021/10/19 05:26:10;;;;;;;54.87;27.27;;;7.60;99.90;;;;;;5002288;28;20752;-81
2021/10/19 05:28:36;;;;;;;51.50;26.53;;;7.60;99.90;;;;;;5001019;28;20267;-81
2021/10/19 05:31:03;;;;;;;51.50;27.33;;;7.60;99.90;;;;;;5000931;28;20182;-81
2021/10/19 05:33:29;;;;;;;53.20;27.77;;;7.60;99.90;;;;;;4999312;28;20219;-82
2021/10/19 05:35:54;;;;;;;49.67;26.80;;;7.60;99.90;;;;;;5001339;28;20263;-81
2021/10/19 05:38:20;;;;;;;54.03;28.20;;;7.70;99.90;;;;;;5000100;28;20205;-81
2021/10/19 05:40:46;;;;;;;52.73;28.30;;;7.70;99.90;;;;;;5001471;28;20650;-81
2021/10/19 05:43:11;;;;;;;54.67;26.77;;;7.80;99.90;;;;;;5000017;28;20186;-81
2021/10/19 05:45:37;;;;;;;58.23;28.67;;;7.70;99.90;;;;;;5001275;28;20181;-82
2021/10/19 05:48:03;;;;;;;54.57;27.30;;;7.80;99.90;;;;;;5000962;28;20180;-81
2021/10/19 05:50:29;;;;;;;57.83;29.07;;;7.70;99.90;;;;;;5001617;28;20194;-81
2021/10/19 05:52:54;;;;;;;50.27;26.27;;;7.70;99.90;;;;;;5000813;28;20271;-82
2021/10/19 05:55:20;;;;;;;53.00;27.80;;;7.70;99.90;;;;;;4999275;28;20180;-79
2021/10/19 05:57:45;;;;;;;55.00;27.57;;;7.80;99.90;;;;;;5000511;28;20219;-82
2021/10/19 06:00:12;;;;;;;55.10;27.53;;;7.70;99.90;;;;;;4999281;28;20180;-81
2021/10/19 06:02:38;;;;;;;51.87;26.67;;;7.70;99.90;;;;;;5000986;28;20188;-81
2021/10/19 06:05:04;;;;;;;55.07;27.53;;;7.90;99.90;;;;;;4998592;28;20290;-81
2021/10/19 06:07:30;;;;;;;53.33;27.63;;;7.80;99.90;;;;;;5000942;28;20262;-80
2021/10/19 06:09:55;;;;;;;51.00;26.83;;;7.80;99.90;;;;;;4999188;28;20222;-81
2021/10/19 06:12:21;;;;;;;48.87;25.30;;;7.80;99.90;;;;;;4999563;28;20207;-81
2021/10/19 06:14:47;;;;;;;51.97;26.13;;;7.80;99.90;;;;;;4998638;28;20199;-81
2021/10/19 06:17:12;;;;;;;49.37;26.40;;;7.80;99.90;;;;;;5000363;28;20210;-80
2021/10/19 06:19:39;;;;;;;52.80;27.40;;;7.80;99.90;;;;;;5001063;28;20180;-81
2021/10/19 06:22:04;;;;;;;50.53;26.40;;;7.80;99.90;;;;;;5000919;28;20180;-81
2021/10/19 06:24:30;;;;;;;52.50;27.73;;;7.90;99.90;;;;;;4999343;28;20202;-81
2021/10/19 06:26:56;;;;;;;57.07;27.20;;;7.90;99.90;;;;;;5000414;28;20202;-81
2021/10/19 06:29:22;;;;;;;56.73;27.70;;;7.90;99.90;;;;;;5000732;28;20234;-81
2021/10/19 06:31:47;;;;;;;54.40;27.67;;;7.90;99.90;;;;;;4999238;28;20199;-81
2021/10/19 06:34:13;;;;;;;55.47;28.33;;;7.90;99.90;;;;;;4998798;28;20218;-81
2021/10/19 06:36:39;;;;;;;56.30;27.50;;;7.90;99.90;;;;;;4999633;28;20291;-80
2021/10/19 06:39:05;;;;;;;51.90;27.37;;;7.90;99.90;;;;;;5000605;28;20211;-80
2021/10/19 06:41:31;;;;;;;55.87;28.07;;;7.90;99.90;;;;;;5002068;28;20251;-80
2021/10/19 06:43:58;;;;;;;58.93;28.07;;;7.90;99.90;;;;;;5000046;28;20199;-80
2021/10/19 06:46:24;;;;;;;56.13;28.07;;;7.90;99.90;;;;;;5003570;28;20180;-80
2021/10/19 06:48:49;;;;;;;57.00;27.67;;;8.00;99.90;;;;;;5003433;28;20187;-80
2021/10/19 06:51:15;;;;;;;52.90;26.00;;;8.00;99.90;;;;;;5008480;28;20178;-80
2021/10/19 06:53:41;;;;;;;48.57;25.80;;;8.00;99.90;;;;;;5003244;28;20203;-80
2021/10/19 06:56:06;;;;;;;50.90;27.30;;;7.90;99.90;;;;;;5003020;28;20203;-80
2021/10/19 06:58:32;;;;;;;49.57;27.33;;;7.90;99.90;;;;;;5002760;28;20717;-80
2021/10/19 07:01:00;;;;;;;47.87;27.33;;;8.00;99.90;;;;;;5002765;28;20658;-80
2021/10/19 07:03:26;;;;;;;49.50;27.87;;;8.00;99.90;;;;;;5001621;28;20200;-80
2021/10/19 07:05:53;;;;;;;42.00;25.40;;;8.00;99.90;;;;;;5003489;28;20171;-80
2021/10/19 07:08:19;;;;;;;46.37;26.40;;;8.10;99.90;;;;;;5003954;28;20187;-80
2021/10/19 07:10:44;;;;;;;41.57;25.13;;;8.00;99.90;;;;;;5002962;28;20242;-79
2021/10/19 07:13:11;;;;;;;44.10;26.03;;;8.10;99.90;;;;;;5001714;28;20183;-80
2021/10/19 07:15:36;;;;;;;48.13;27.90;;;8.10;99.90;;;;;;5003197;28;20179;-80
2021/10/19 07:18:03;;;;;;;44.33;26.50;;;8.20;99.90;;;;;;5002095;28;20612;-80
2021/10/19 07:20:29;;;;;;;47.63;27.30;;;8.10;99.90;;;;;;5001860;28;20180;-80
2021/10/19 07:22:56;;;;;;;44.10;25.73;;;8.20;99.90;;;;;;5001296;28;20262;-80
2021/10/19 07:25:22;;;;;;;49.00;27.50;;;8.20;99.90;;;;;;5002005;28;20172;-80
2021/10/19 07:27:48;;;;;;;46.90;26.80;;;8.20;99.90;;;;;;5002171;28;20173;-80
2021/10/19 07:30:16;;;;;;;48.60;26.63;;;8.20;99.90;;;;;;5002187;28;20657;-80
2021/10/19 07:32:42;;;;;;;46.50;26.53;;;8.20;99.90;;;;;;5002324;28;20182;-80
2021/10/19 07:35:08;;;;;;;41.00;25.97;;;8.30;99.90;;;;;;5001410;28;20555;-81
2021/10/19 07:37:38;;;;;;;45.33;26.73;;;8.20;99.90;;;;;;4999706;28;20207;-80
2021/10/19 07:40:06;;;;;;;47.87;26.87;;;8.30;99.90;;;;;;5003664;28;20204;-80
2021/10/19 07:42:33;;;;;;;51.60;27.77;;;8.40;99.90;;;;;;5003795;28;20218;-80
2021/10/19 07:45:03;;;;;;;48.67;28.33;;;8.40;99.90;;;;;;5003227;28;20217;-80
2021/10/19 07:47:32;;;;;;;46.43;27.67;;;8.50;99.90;;;;;;5001927;28;20180;-79
2021/10/19 07:49:58;;;;;;;51.30;28.57;;;8.40;99.90;;;;;;5001151;28;20250;-80
2021/10/19 07:52:24;;;;;;;52.53;27.83;;;8.50;99.90;;;;;;5000363;28;20211;-81
2021/10/19 07:54:49;;;;;;;51.63;28.37;;;8.50;99.90;;;;;;5000907;28;20189;-81
2021/10/19 07:57:15;;;;;;;50.30;28.10;;;8.60;99.90;;;;;;5001855;28;20681;-81
2021/10/19 07:59:41;;;;;;;51.83;28.43;;;8.60;99.90;;;;;;5000224;28;20189;-80
2021/10/19 08:02:07;;;;;;;49.67;27.93;;;8.60;99.90;;;;;;5000790;28;20176;-81
2021/10/19 08:04:33;;;;;;;47.97;27.20;;;8.60;99.90;;;;;;4999795;28;20786;-80
2021/10/19 08:06:58;;;;;;;49.83;28.00;;;8.70;99.90;;;;;;5000188;28;20239;-81
2021/10/19 08:09:24;;;;;;;46.00;26.80;;;8.70;99.90;;;;;;5000141;28;20219;-81
2021/10/19 08:11:50;;;;;;;51.90;28.40;;;8.70;99.90;;;;;;4999379;28;20539;-80
2021/10/19 08:14:16;;;;;;;49.63;27.63;;;8.80;99.90;;;;;;5000708;28;20203;-80
2021/10/19 08:16:41;;;;;;;52.57;27.70;;;8.80;99.90;;;;;;5000562;28;20205;-81
2021/10/19 08:19:07;;;;;;;51.83;28.70;;;8.90;99.90;;;;;;5000441;28;20203;-80
2021/10/19 08:21:33;;;;;;;48.23;27.53;;;8.90;99.90;;;;;;4998379;28;20186;-81
2021/10/19 08:23:59;;;;;;;47.03;27.97;;;8.90;99.90;;;;;;4999739;28;20202;-80
2021/10/19 08:26:30;;;;;;;52.87;28.33;;;9.00;99.90;;;;;;4999751;28;20242;-81
2021/10/19 08:28:57;;;;;;;43.30;26.80;;;9.00;99.90;;;;;;4999012;28;20186;-80
2021/10/19 08:31:22;;;;;;;46.77;26.63;;;9.00;99.90;;;;;;4999826;28;20218;-80
2021/10/19 08:33:50;;;;;;;45.73;26.60;;;9.00;99.90;;;;;;4996888;28;20223;-80
2021/10/19 08:36:16;;;;;;;45.83;27.00;;;9.00;99.90;;;;;;4996883;28;20172;-80
2021/10/19 08:38:43;;;;;;;45.80;27.30;;;9.00;99.90;;;;;;4999852;28;20639;-80
2021/10/19 08:41:11;;;;;;;52.47;27.80;;;9.00;99.90;;;;;;4997856;28;20225;-81
2021/10/19 08:43:38;;;;;;;45.23;27.83;;;9.10;99.90;;;;;;4997511;28;20231;-80
2021/10/19 08:46:08;;;;;;;47.87;27.93;;;9.10;99.90;;;;;;4994925;28;20177;-80
2021/10/19 08:48:34;;;;;;;50.60;27.93;;;9.20;99.90;;;;;;4999642;28;20263;-79
2021/10/19 08:50:59;;;;;;;54.73;29.00;;;9.20;99.90;;;;;;4999648;28;20211;-80
2021/10/19 08:53:26;;;;;;;47.17;26.70;;;9.20;99.90;;;;;;4997408;28;20587;-80
2021/10/19 08:55:52;;;;;;;49.80;27.70;;;9.20;99.90;;;;;;4992239;28;20199;-80
2021/10/19 08:58:18;;;;;;;55.97;27.77;;;9.30;99.90;;;;;;4999143;28;20561;-83
2021/10/19 09:00:43;;;;;;;45.53;27.10;;;9.40;99.90;;;;;;4998732;28;20544;-80
2021/10/19 09:03:09;;;;;;;49.87;28.33;;;9.40;99.90;;;;;;4998262;28;20180;-80
2021/10/19 09:05:35;;;;;;;47.37;27.20;;;9.40;99.90;;;;;;4998591;28;20540;-80
2021/10/19 09:08:09;;;;;;;47.33;27.77;;;9.40;99.90;;;;;;4998526;28;20264;-79
2021/10/19 09:10:37;;;;;;;45.63;27.00;;;9.50;99.90;;;;;;4995521;28;20181;-79
2021/10/19 09:13:05;;;;;;;46.70;27.60;;;9.50;99.90;;;;;;4997626;28;20180;-79
2021/10/19 09:15:34;;;;;;;43.57;26.77;;;9.50;99.90;;;;;;4998107;28;20184;-79
2021/10/19 09:18:09;;;;;;;51.20;28.83;;;9.60;99.90;;;;;;4998930;28;20263;-79
2021/10/19 09:20:37;;;;;;;54.73;29.33;;;9.60;99.90;;;;;;4998983;28;20180;-79
2021/10/19 09:23:04;;;;;;;51.83;28.77;;;9.70;99.90;;;;;;4999718;28;20180;-80
2021/10/19 09:25:34;;;;;;;46.07;27.60;;;9.70;99.90;;;;;;4998534;28;20188;-80
2021/10/19 09:28:02;;;;;;;43.87;27.47;;;9.70;99.90;;;;;;4999080;28;20180;-81
2021/10/19 09:30:33;;;;;;;47.83;27.30;;;9.70;99.90;;;;;;4996946;28;20180;-79
2021/10/19 09:32:59;;;;;;;45.63;27.97;;;9.70;99.90;;;;;;4995925;28;20177;-80
2021/10/19 09:35:25;;;;;;;46.23;27.20;;;9.80;99.90;;;;;;4998053;28;20690;-80
2021/10/19 09:37:58;;;;;;;46.57;28.97;;;9.90;99.90;;;;;;4995666;28;20284;-80
2021/10/19 09:40:36;;;;;;;54.47;30.87;;;9.90;99.90;;;;;;4996998;28;20195;-80
2021/10/19 09:43:07;;;;;;;52.60;29.37;;;9.90;99.90;;;;;;4993527;28;20180;-80
2021/10/19 09:45:34;;;;;;;45.77;27.80;;;10.00;99.90;;;;;;4993551;28;20222;-79
2021/10/19 09:48:01;;;;;;;44.43;27.33;;;10.00;99.90;;;;;;4999987;28;20181;-79
2021/10/19 09:50:29;;;;;;;43.93;26.03;;;10.00;99.90;;;;;;4999311;28;20658;-80
2021/10/19 09:52:56;;;;;;;41.83;26.47;;;10.00;99.90;;;;;;4999949;28;20571;-80
2021/10/19 09:55:22;;;;;;;44.63;27.70;;;10.10;99.90;;;;;;4999800;28;20184;-79
2021/10/19 09:57:53;;;;;;;47.93;28.37;;;10.10;99.90;;;;;;5000204;28;20188;-80
2021/10/19 10:00:19;;;;;;;44.80;26.90;;;10.10;99.90;;;;;;5000882;28;20519;-79
2021/10/19 10:02:46;;;;;;;49.57;28.97;;;10.10;99.90;;;;;;5000837;28;20522;-80
2021/10/19 10:05:12;;;;;;;53.70;29.67;;;10.10;99.90;;;;;;5000767;28;20268;-80
2021/10/19 10:07:41;;;;;;;46.33;28.67;;;10.10;99.90;;;;;;5000529;28;20690;-80
2021/10/19 10:10:07;;;;;;;44.37;27.77;;;10.10;99.90;;;;;;5001466;28;20238;-80
2021/10/19 10:12:34;;;;;;;43.13;29.00;;;10.10;99.90;;;;;;5000120;28;20185;-80
2021/10/19 10:15:00;;;;;;;45.00;29.13;;;10.20;99.90;;;;;;5001582;28;20242;-81
2021/10/19 10:17:26;;;;;;;43.63;27.83;;;10.10;99.90;;;;;;5001111;28;20271;-80
2021/10/19 10:19:52;;;;;;;48.10;29.37;;;10.10;99.90;;;;;;5001211;28;20200;-81
2021/10/19 10:22:19;;;;;;;48.10;29.10;;;10.20;99.90;;;;;;5001159;28;20664;-81
2021/10/19 10:24:46;;;;;;;49.17;30.40;;;10.10;99.90;;;;;;4998218;28;20207;-81
2021/10/19 10:27:17;;;;;;;48.97;31.03;;;10.20;99.90;;;;;;4997290;28;20212;-80
2021/10/19 10:29:45;;;;;;;52.53;31.07;;;10.30;99.90;;;;;;4999797;28;20180;-82
2021/10/19 10:32:26;;;;;;;66.87;38.13;;;10.30;99.90;;;;;;5000401;28;20183;-80
2021/10/19 10:35:09;;;;;;;51.80;30.43;;;10.30;99.90;;;;;;5000923;28;20215;-81
2021/10/19 10:37:53;;;;;;;54.80;31.07;;;10.30;99.90;;;;;;4999327;28;20613;-80
2021/10/19 10:40:31;;;;;;;49.97;29.67;;;10.30;99.90;;;;;;4999662;28;20264;-81
2021/10/19 10:43:00;;;;;;;50.57;28.97;;;10.40;99.90;;;;;;4998976;28;20176;-81
2021/10/19 10:45:30;;;;;;;46.97;30.03;;;10.40;99.90;;;;;;5000440;28;20569;-80
2021/10/19 10:48:03;;;;;;;37.33;26.10;;;10.40;99.90;;;;;;5003253;28;20714;-80
2021/10/19 10:50:30;;;;;;;33.63;24.93;;;10.50;99.90;;;;;;4999468;28;20528;-80
2021/10/19 10:53:05;;;;;;;35.67;24.20;;;10.50;99.90;;;;;;4993427;28;20609;-80
2021/10/19 10:55:49;;;;;;;30.07;23.53;;;10.60;99.90;;;;;;4996550;28;20175;-80
2021/10/19 10:58:32;;;;;;;35.37;23.07;;;10.60;99.90;;;;;;4997647;28;20203;-80
2021/10/19 11:01:00;;;;;;;30.90;24.23;;;10.60;99.90;;;;;;4998214;28;20183;-80
2021/10/19 11:03:26;;;;;;;29.90;22.43;;;10.60;99.90;;;;;;4998611;28;20196;-78
2021/10/19 11:06:01;;;;;;;28.63;22.70;;;10.60;99.90;;;;;;4997491;28;20169;-77
2021/10/19 11:08:35;;;;;;;30.77;23.60;;;10.60;99.90;;;;;;4996788;28;20176;-77
2021/10/19 11:11:02;;;;;;;34.63;22.57;;;10.70;99.90;;;;;;4998638;28;20523;-80
2021/10/19 11:13:28;;;;;;;26.70;20.97;;;10.60;99.90;;;;;;5002969;28;20196;-81
2021/10/19 11:15:56;;;;;;;28.83;23.33;;;10.70;99.90;;;;;;5003529;28;20213;-81
2021/10/19 11:18:24;;;;;;;28.00;21.70;;;10.70;99.90;;;;;;5013812;28;20193;-86
2021/10/19 11:20:59;;;;;;;28.50;21.53;;;10.60;99.90;;;;;;5005613;28;20191;-85
2021/10/19 11:23:24;;;;;;;27.57;21.70;;;10.60;99.90;;;;;;5003227;28;20199;-86
2021/10/19 11:25:50;;;;;;;31.77;23.33;;;10.70;99.90;;;;;;5004446;28;20178;-84
2021/10/19 11:28:16;;;;;;;30.73;22.60;;;10.70;99.90;;;;;;5006015;28;20549;-83
2021/10/19 11:30:43;;;;;;;30.37;21.87;;;10.70;99.90;;;;;;5006193;28;20184;-84
2021/10/19 11:33:09;;;;;;;31.77;21.73;;;10.70;99.90;;;;;;5005137;28;20568;-86
2021/10/19 11:35:35;;;;;;;31.87;25.07;;;10.70;99.90;;;;;;5004260;28;20185;-85
2021/10/19 11:38:01;;;;;;;31.37;22.70;;;10.80;99.90;;;;;;5004581;28;20198;-86
2021/10/19 11:40:27;;;;;;;31.07;22.80;;;10.80;99.90;;;;;;5003355;28;20268;-86
2021/10/19 11:42:55;;;;;;;38.57;31.10;;;10.90;99.90;;;;;;5003947;28;20685;-86
2021/10/19 11:45:22;;;;;;;31.87;23.57;;;10.90;99.90;;;;;;5004507;28;20241;-86
2021/10/19 11:47:50;;;;;;;29.23;22.30;;;11.00;99.90;;;;;;5002947;28;20179;-86
2021/10/19 11:50:20;;;;;;;31.27;23.23;;;11.10;99.90;;;;;;5003831;28;20189;-86
2021/10/19 11:52:47;;;;;;;27.33;20.17;;;11.10;99.90;;;;;;5003587;28;20521;-86
2021/10/19 11:55:15;;;;;;;30.67;22.93;;;11.10;99.90;;;;;;5003788;28;20196;-86
2021/10/19 11:57:41;;;;;;;30.13;23.43;;;11.10;99.90;;;;;;5002992;28;20635;-86
2021/10/19 12:00:09;;;;;;;35.57;25.27;;;11.20;99.90;;;;;;5004642;28;20194;-86
2021/10/19 12:02:35;;;;;;;41.07;26.93;;;11.20;99.90;;;;;;5002769;28;20584;-86
2021/10/19 12:05:06;;;;;;;30.83;22.53;;;11.30;99.90;;;;;;5003268;28;20204;-86
2021/10/19 12:07:32;;;;;;;25.73;20.00;;;11.40;99.90;;;;;;5003552;28;20678;-86
2021/10/19 12:10:11;;;;;;;26.70;20.27;;;11.40;99.90;;;;;;5003014;28;20187;-86
2021/10/19 12:12:37;;;;;;;53.77;31.80;;;11.40;99.90;;;;;;5003852;28;20591;-86
2021/10/19 12:15:03;;;;;;;32.10;22.47;;;11.50;99.90;;;;;;5003555;28;20288;-87
2021/10/19 12:17:28;;;;;;;28.10;20.57;;;11.50;99.90;;;;;;5002407;28;20267;-86
2021/10/19 12:19:55;;;;;;;31.50;22.73;;;11.50;99.90;;;;;;5004233;28;20190;-86
2021/10/19 12:22:21;;;;;;;42.90;26.30;;;11.60;99.90;;;;;;5002769;28;20181;-84
2021/10/19 12:24:47;;;;;;;44.13;27.87;;;11.60;99.90;;;;;;5005516;28;20278;-86
2021/10/19 12:27:18;;;;;;;31.60;21.70;;;11.60;99.90;;;;;;5003987;28;20273;-84
2021/10/19 12:29:47;;;;;;;30.87;21.63;;;11.70;99.90;;;;;;5004116;28;20184;-83
2021/10/19 12:32:14;;;;;;;81.50;44.00;;;11.80;99.90;;;;;;5005264;28;20201;-84
2021/10/19 12:34:40;;;;;;;42.67;23.83;;;11.80;99.90;;;;;;5004480;28;20210;-84